sensor_id;sensor_type;location;lat;lon;timestamp;temperature;humidity
285;DHT22;127;48.770;9.212;2023-07-29T00:02:44;17.70;1.00
285;DHT22;127;48.770;9.212;2023-07-29T00:05:31;17.80;1.00
285;DHT22;127;48.770;9.212;2023-07-29T00:08:41;17.80;1.00
285;DHT22;127;48.770;9.212;2023-07-29T00:11:43;17.60;1.00
285;DHT22;127;48.770;9.212;2023-07-29T00:14:57;17.60;1.00
285;DHT22;127;48.770;9.212;2023-07-29T00:21:00;18.70;1.00
285;DHT22;127;48.770;9.212;2023-07-29T00:25:49;17.60;1.00
285;DHT22;127;48.770;9.212;2023-07-29T00:39:22;17.40;1.00
285;DHT22;127;48.770;9.212;2023-07-29T00:41:59;17.40;1.00
285;DHT22;127;48.770;9.212;2023-07-29T00:44:59;17.40;1.00
285;DHT22;127;48.770;9.212;2023-07-29T00:51:09;17.40;1.00
285;DHT22;127;48.770;9.212;2023-07-29T00:53:55;17.50;1.00
285;DHT22;127;48.770;9.212;2023-07-29T00:57:22;17.40;1.00
285;DHT22;127;48.770;9.212;2023-07-29T01:00:11;17.50;1.00
285;DHT22;127;48.770;9.212;2023-07-29T01:03:23;17.50;1.00
285;DHT22;127;48.770;9.212;2023-07-29T01:06:44;17.00;1.00
285;DHT22;127;48.770;9.212;2023-07-29T01:09:50;17.50;1.00
285;DHT22;127;48.770;9.212;2023-07-29T01:12:45;17.40;1.00
285;DHT22;127;48.770;9.212;2023-07-29T01:15:39;17.30;1.00
285;DHT22;127;48.770;9.212;2023-07-29T01:18:22;17.40;1.00
285;DHT22;127;48.770;9.212;2023-07-29T01:21:10;17.30;1.00
285;DHT22;127;48.770;9.212;2023-07-29T01:24:06;17.20;1.00
285;DHT22;127;48.770;9.212;2023-07-29T01:26:43;17.00;1.00
285;DHT22;127;48.770;9.212;2023-07-29T01:32:47;17.10;1.00
285;DHT22;127;48.770;9.212;2023-07-29T01:35:34;17.20;1.00
285;DHT22;127;48.770;9.212;2023-07-29T01:38:50;17.10;1.00
285;DHT22;127;48.770;9.212;2023-07-29T01:41:37;17.20;1.00
285;DHT22;127;48.770;9.212;2023-07-29T01:44:20;17.30;1.00
285;DHT22;127;48.770;9.212;2023-07-29T01:49:21;17.50;1.00
285;DHT22;127;48.770;9.212;2023-07-29T01:50:30;17.50;1.00
285;DHT22;127;48.770;9.212;2023-07-29T01:53:30;17.70;1.00
285;DHT22;127;48.770;9.212;2023-07-29T01:56:14;17.30;1.00
285;DHT22;127;48.770;9.212;2023-07-29T01:58:52;17.80;1.00
285;DHT22;127;48.770;9.212;2023-07-29T02:01:25;18.00;1.00
285;DHT22;127;48.770;9.212;2023-07-29T02:04:24;17.90;1.00
285;DHT22;127;48.770;9.212;2023-07-29T02:07:03;18.00;1.00
285;DHT22;127;48.770;9.212;2023-07-29T02:09:45;17.90;1.00
285;DHT22;127;48.770;9.212;2023-07-29T02:12:23;17.70;1.00
285;DHT22;127;48.770;9.212;2023-07-29T02:15:09;17.80;1.00
285;DHT22;127;48.770;9.212;2023-07-29T02:17:46;17.80;1.00
285;DHT22;127;48.770;9.212;2023-07-29T02:20:17;17.80;1.00
285;DHT22;127;48.770;9.212;2023-07-29T02:23:21;17.80;1.00
285;DHT22;127;48.770;9.212;2023-07-29T02:26:04;17.80;1.00
285;DHT22;127;48.770;9.212;2023-07-29T02:28:42;17.80;1.00
285;DHT22;127;48.770;9.212;2023-07-29T02:31:30;17.60;1.00
285;DHT22;127;48.770;9.212;2023-07-29T02:34:24;17.50;1.00
285;DHT22;127;48.770;9.212;2023-07-29T02:37:09;17.40;1.00
285;DHT22;127;48.770;9.212;2023-07-29T02:40:15;17.50;1.00
285;DHT22;127;48.770;9.212;2023-07-29T02:42:48;17.40;1.00
285;DHT22;127;48.770;9.212;2023-07-29T02:45:33;17.40;1.00
285;DHT22;127;48.770;9.212;2023-07-29T02:48:19;17.50;1.00
285;DHT22;127;48.770;9.212;2023-07-29T02:50:50;17.40;1.00
285;DHT22;127;48.770;9.212;2023-07-29T02:53:32;17.40;1.00
285;DHT22;127;48.770;9.212;2023-07-29T02:56:14;17.40;1.00
285;DHT22;127;48.770;9.212;2023-07-29T02:58:59;17.00;1.00
285;DHT22;127;48.770;9.212;2023-07-29T03:01:30;17.60;1.00
285;DHT22;127;48.770;9.212;2023-07-29T03:04:22;17.60;1.00
285;DHT22;127;48.770;9.212;2023-07-29T03:06:53;17.70;1.00
285;DHT22;127;48.770;9.212;2023-07-29T03:09:29;17.70;1.00
285;DHT22;127;48.770;9.212;2023-07-29T03:12:12;17.10;1.00
285;DHT22;127;48.770;9.212;2023-07-29T03:14:44;17.70;1.00
285;DHT22;127;48.770;9.212;2023-07-29T03:17:25;17.60;1.00
285;DHT22;127;48.770;9.212;2023-07-29T03:20:02;17.60;1.00
285;DHT22;127;48.770;9.212;2023-07-29T03:22:36;17.60;1.00
285;DHT22;127;48.770;9.212;2023-07-29T03:25:08;17.70;1.00
285;DHT22;127;48.770;9.212;2023-07-29T03:27:45;17.70;99.90
285;DHT22;127;48.770;9.212;2023-07-29T03:33:37;17.20;99.90
285;DHT22;127;48.770;9.212;2023-07-29T03:36:11;17.80;99.90
285;DHT22;127;48.770;9.212;2023-07-29T03:41:35;18.00;99.90
285;DHT22;127;48.770;9.212;2023-07-29T03:44:13;18.00;99.90
285;DHT22;127;48.770;9.212;2023-07-29T03:46:47;18.00;99.90
285;DHT22;127;48.770;9.212;2023-07-29T03:49:29;18.00;99.90
285;DHT22;127;48.770;9.212;2023-07-29T03:52:30;18.10;99.90
285;DHT22;127;48.770;9.212;2023-07-29T03:55:20;18.10;99.90
285;DHT22;127;48.770;9.212;2023-07-29T03:57:54;18.20;99.90
285;DHT22;127;48.770;9.212;2023-07-29T04:00:36;18.20;99.90
285;DHT22;127;48.770;9.212;2023-07-29T04:03:11;18.20;99.90
285;DHT22;127;48.770;9.212;2023-07-29T04:05:50;18.20;99.90
285;DHT22;127;48.770;9.212;2023-07-29T04:08:58;18.30;99.90
285;DHT22;127;48.770;9.212;2023-07-29T04:14:38;18.00;99.90
285;DHT22;127;48.770;9.212;2023-07-29T04:17:28;17.90;1.00
285;DHT22;127;48.770;9.212;2023-07-29T04:22:41;17.70;1.00
285;DHT22;127;48.770;9.212;2023-07-29T04:24:24;17.50;1.00
285;DHT22;127;48.770;9.212;2023-07-29T04:27:12;17.50;1.00
285;DHT22;127;48.770;9.212;2023-07-29T04:33:12;17.40;1.00
285;DHT22;127;48.770;9.212;2023-07-29T04:35:52;17.50;1.00
285;DHT22;127;48.770;9.212;2023-07-29T04:38:25;17.50;1.00
285;DHT22;127;48.770;9.212;2023-07-29T04:41:35;17.50;1.00
285;DHT22;127;48.770;9.212;2023-07-29T04:44:19;17.60;1.00
285;DHT22;127;48.770;9.212;2023-07-29T04:50:36;17.60;1.00
285;DHT22;127;48.770;9.212;2023-07-29T04:53:20;17.50;1.00
285;DHT22;127;48.770;9.212;2023-07-29T04:55:55;17.50;1.00
285;DHT22;127;48.770;9.212;2023-07-29T04:59:09;17.40;1.00
285;DHT22;127;48.770;9.212;2023-07-29T05:02:13;17.50;1.00
285;DHT22;127;48.770;9.212;2023-07-29T05:05:26;17.30;1.00
285;DHT22;127;48.770;9.212;2023-07-29T05:08:33;17.30;1.00
285;DHT22;127;48.770;9.212;2023-07-29T05:11:27;17.30;1.00
285;DHT22;127;48.770;9.212;2023-07-29T05:14:28;17.00;1.00
285;DHT22;127;48.770;9.212;2023-07-29T05:38:33;17.50;1.00
285;DHT22;127;48.770;9.212;2023-07-29T05:41:05;17.60;1.00
285;DHT22;127;48.770;9.212;2023-07-29T05:47:29;17.70;1.00
285;DHT22;127;48.770;9.212;2023-07-29T06:15:24;17.70;1.00
285;DHT22;127;48.770;9.212;2023-07-29T06:16:27;18.10;1.00
285;DHT22;127;48.770;9.212;2023-07-29T10:21:40;28.70;99.90
285;DHT22;127;48.770;9.212;2023-07-29T16:17:32;30.80;99.90
285;DHT22;127;48.770;9.212;2023-07-29T16:20:25;30.10;99.90
285;DHT22;127;48.770;9.212;2023-07-29T16:23:13;30.40;99.90
285;DHT22;127;48.770;9.212;2023-07-29T16:26:00;29.50;99.90
285;DHT22;127;48.770;9.212;2023-07-29T16:28:34;29.50;99.90
285;DHT22;127;48.770;9.212;2023-07-29T16:31:45;27.80;99.90
285;DHT22;127;48.770;9.212;2023-07-29T16:34:20;29.40;99.90
285;DHT22;127;48.770;9.212;2023-07-29T16:36:52;30.10;99.90
285;DHT22;127;48.770;9.212;2023-07-29T16:39:24;30.50;99.90
285;DHT22;127;48.770;9.212;2023-07-29T16:42:11;30.00;99.90
285;DHT22;127;48.770;9.212;2023-07-29T16:44:58;28.90;99.90
285;DHT22;127;48.770;9.212;2023-07-29T16:47:35;29.40;99.90
285;DHT22;127;48.770;9.212;2023-07-29T16:50:15;29.70;99.90
285;DHT22;127;48.770;9.212;2023-07-29T16:52:57;29.10;99.90
285;DHT22;127;48.770;9.212;2023-07-29T16:55:26;29.20;99.90
285;DHT22;127;48.770;9.212;2023-07-29T16:57:59;28.50;99.90
285;DHT22;127;48.770;9.212;2023-07-29T17:00:28;29.00;99.90
285;DHT22;127;48.770;9.212;2023-07-29T17:03:01;29.10;99.90
285;DHT22;127;48.770;9.212;2023-07-29T17:05:45;28.90;99.90
285;DHT22;127;48.770;9.212;2023-07-29T17:08:41;28.60;99.90
285;DHT22;127;48.770;9.212;2023-07-29T17:14:53;27.80;99.90
285;DHT22;127;48.770;9.212;2023-07-29T17:20:22;26.70;99.90
285;DHT22;127;48.770;9.212;2023-07-29T17:25:56;26.00;99.90
285;DHT22;127;48.770;9.212;2023-07-29T17:28:25;25.20;99.90
285;DHT22;127;48.770;9.212;2023-07-29T17:31:14;25.00;99.90
285;DHT22;127;48.770;9.212;2023-07-29T17:33:57;24.60;99.90
285;DHT22;127;48.770;9.212;2023-07-29T17:36:32;23.40;99.90
285;DHT22;127;48.770;9.212;2023-07-29T17:39:06;22.60;99.90
285;DHT22;127;48.770;9.212;2023-07-29T17:41:40;21.80;99.90
285;DHT22;127;48.770;9.212;2023-07-29T17:44:14;21.10;99.90
285;DHT22;127;48.770;9.212;2023-07-29T17:46:45;20.70;99.90
285;DHT22;127;48.770;9.212;2023-07-29T17:49:18;20.60;99.90
285;DHT22;127;48.770;9.212;2023-07-29T17:52:00;20.70;99.90
285;DHT22;127;48.770;9.212;2023-07-29T17:54:42;20.60;99.90
285;DHT22;127;48.770;9.212;2023-07-29T17:57:11;20.40;99.90
285;DHT22;127;48.770;9.212;2023-07-29T17:59:40;20.50;99.90
285;DHT22;127;48.770;9.212;2023-07-29T18:02:33;20.80;99.90
285;DHT22;127;48.770;9.212;2023-07-29T18:05:13;21.00;99.90
285;DHT22;127;48.770;9.212;2023-07-29T18:08:02;21.20;99.90
285;DHT22;127;48.770;9.212;2023-07-29T18:10:34;21.30;99.90
285;DHT22;127;48.770;9.212;2023-07-29T18:13:09;21.40;99.90
285;DHT22;127;48.770;9.212;2023-07-29T18:15:38;21.70;99.90
285;DHT22;127;48.770;9.212;2023-07-29T18:18:07;21.80;99.90
285;DHT22;127;48.770;9.212;2023-07-29T18:20:36;21.60;99.90
285;DHT22;127;48.770;9.212;2023-07-29T18:23:06;21.40;99.90
285;DHT22;127;48.770;9.212;2023-07-29T18:25:39;21.80;99.90
285;DHT22;127;48.770;9.212;2023-07-29T18:28:10;21.10;99.90
285;DHT22;127;48.770;9.212;2023-07-29T18:30:47;21.10;99.90
285;DHT22;127;48.770;9.212;2023-07-29T18:33:30;21.10;99.90
285;DHT22;127;48.770;9.212;2023-07-29T18:36:01;21.00;99.90
285;DHT22;127;48.770;9.212;2023-07-29T18:38:33;21.00;99.90
285;DHT22;127;48.770;9.212;2023-07-29T18:41:05;20.90;99.90
285;DHT22;127;48.770;9.212;2023-07-29T18:43:35;20.80;99.90
285;DHT22;127;48.770;9.212;2023-07-29T18:46:04;20.80;99.90
285;DHT22;127;48.770;9.212;2023-07-29T18:48:33;20.80;99.90
285;DHT22;127;48.770;9.212;2023-07-29T18:51:05;20.80;99.90
285;DHT22;127;48.770;9.212;2023-07-29T18:53:34;20.60;99.90
285;DHT22;127;48.770;9.212;2023-07-29T18:56:09;20.60;99.90
285;DHT22;127;48.770;9.212;2023-07-29T18:58:39;20.60;99.90
285;DHT22;127;48.770;9.212;2023-07-29T19:01:10;20.50;99.90
285;DHT22;127;48.770;9.212;2023-07-29T19:03:39;20.60;99.90
285;DHT22;127;48.770;9.212;2023-07-29T19:06:09;20.50;99.90
285;DHT22;127;48.770;9.212;2023-07-29T19:08:39;20.50;99.90
285;DHT22;127;48.770;9.212;2023-07-29T19:11:13;20.50;99.90
285;DHT22;127;48.770;9.212;2023-07-29T19:13:57;20.40;99.90
285;DHT22;127;48.770;9.212;2023-07-29T19:16:28;20.40;99.90
285;DHT22;127;48.770;9.212;2023-07-29T19:19:00;20.30;99.90
285;DHT22;127;48.770;9.212;2023-07-29T19:21:28;20.30;99.90
285;DHT22;127;48.770;9.212;2023-07-29T19:24:04;20.20;99.90
285;DHT22;127;48.770;9.212;2023-07-29T19:26:35;20.20;99.90
285;DHT22;127;48.770;9.212;2023-07-29T19:29:07;20.20;99.90
285;DHT22;127;48.770;9.212;2023-07-29T19:31:43;20.10;99.90
285;DHT22;127;48.770;9.212;2023-07-29T19:34:16;20.00;99.90
285;DHT22;127;48.770;9.212;2023-07-29T19:36:50;20.00;99.90
285;DHT22;127;48.770;9.212;2023-07-29T19:39:19;20.00;99.90
285;DHT22;127;48.770;9.212;2023-07-29T19:41:59;20.00;99.90
285;DHT22;127;48.770;9.212;2023-07-29T19:44:51;20.00;99.90
285;DHT22;127;48.770;9.212;2023-07-29T19:47:20;20.00;99.90
285;DHT22;127;48.770;9.212;2023-07-29T19:49:49;20.00;99.90
285;DHT22;127;48.770;9.212;2023-07-29T19:52:52;20.00;99.90
285;DHT22;127;48.770;9.212;2023-07-29T19:55:28;19.90;99.90
285;DHT22;127;48.770;9.212;2023-07-29T19:58:15;20.00;99.90
285;DHT22;127;48.770;9.212;2023-07-29T20:00:51;19.80;99.90
285;DHT22;127;48.770;9.212;2023-07-29T20:03:32;19.90;99.90
285;DHT22;127;48.770;9.212;2023-07-29T20:06:20;20.00;99.90
285;DHT22;127;48.770;9.212;2023-07-29T20:09:15;19.90;99.90
285;DHT22;127;48.770;9.212;2023-07-29T20:11:48;20.00;99.90
285;DHT22;127;48.770;9.212;2023-07-29T20:14:49;20.00;99.90
285;DHT22;127;48.770;9.212;2023-07-29T20:17:31;19.90;99.90
285;DHT22;127;48.770;9.212;2023-07-29T20:20:08;19.90;99.90
285;DHT22;127;48.770;9.212;2023-07-29T20:22:42;19.80;99.90
285;DHT22;127;48.770;9.212;2023-07-29T20:25:28;19.80;99.90
285;DHT22;127;48.770;9.212;2023-07-29T20:28:08;19.70;99.90
285;DHT22;127;48.770;9.212;2023-07-29T20:30:44;19.90;99.90
285;DHT22;127;48.770;9.212;2023-07-29T20:33:45;19.80;99.90
285;DHT22;127;48.770;9.212;2023-07-29T20:36:19;19.70;99.90
285;DHT22;127;48.770;9.212;2023-07-29T20:38:57;19.70;99.90
285;DHT22;127;48.770;9.212;2023-07-29T20:41:29;19.80;99.90
285;DHT22;127;48.770;9.212;2023-07-29T20:44:06;19.80;99.90
285;DHT22;127;48.770;9.212;2023-07-29T20:46:50;19.80;99.90
285;DHT22;127;48.770;9.212;2023-07-29T20:52:34;19.90;99.90
285;DHT22;127;48.770;9.212;2023-07-29T20:55:25;19.80;99.90
285;DHT22;127;48.770;9.212;2023-07-29T20:57:59;19.90;99.90
285;DHT22;127;48.770;9.212;2023-07-29T21:00:28;19.80;99.90
285;DHT22;127;48.770;9.212;2023-07-29T21:03:07;19.90;99.90
285;DHT22;127;48.770;9.212;2023-07-29T21:06:08;19.80;99.90
285;DHT22;127;48.770;9.212;2023-07-29T21:08:43;19.80;99.90
285;DHT22;127;48.770;9.212;2023-07-29T21:11:39;19.80;99.90
285;DHT22;127;48.770;9.212;2023-07-29T21:14:12;19.90;99.90
285;DHT22;127;48.770;9.212;2023-07-29T21:16:56;19.30;99.90
285;DHT22;127;48.770;9.212;2023-07-29T21:19:41;19.90;99.90
285;DHT22;127;48.770;9.212;2023-07-29T21:26:04;19.90;99.90
285;DHT22;127;48.770;9.212;2023-07-29T21:28:48;19.90;99.90
285;DHT22;127;48.770;9.212;2023-07-29T21:31:29;20.00;99.90
285;DHT22;127;48.770;9.212;2023-07-29T21:34:12;19.90;99.90
285;DHT22;127;48.770;9.212;2023-07-29T21:40:23;20.00;99.90
285;DHT22;127;48.770;9.212;2023-07-29T21:43:25;20.10;99.90
285;DHT22;127;48.770;9.212;2023-07-29T21:45:49;20.00;99.90
285;DHT22;127;48.770;9.212;2023-07-29T21:48:34;20.00;99.90
285;DHT22;127;48.770;9.212;2023-07-29T21:51:06;19.90;99.90
285;DHT22;127;48.770;9.212;2023-07-29T21:53:48;19.80;99.90
285;DHT22;127;48.770;9.212;2023-07-29T21:59:13;19.90;99.90
285;DHT22;127;48.770;9.212;2023-07-29T22:01:51;20.00;99.90
285;DHT22;127;48.770;9.212;2023-07-29T22:04:35;19.90;99.90
285;DHT22;127;48.770;9.212;2023-07-29T22:10:23;20.00;99.90
285;DHT22;127;48.770;9.212;2023-07-29T22:13:00;20.00;99.90
285;DHT22;127;48.770;9.212;2023-07-29T22:15:55;20.00;99.90
285;DHT22;127;48.770;9.212;2023-07-29T22:18:24;19.90;99.90
285;DHT22;127;48.770;9.212;2023-07-29T22:23:21;19.80;99.90
285;DHT22;127;48.770;9.212;2023-07-29T22:24:31;19.90;99.90
285;DHT22;127;48.770;9.212;2023-07-29T22:27:53;19.80;99.90
285;DHT22;127;48.770;9.212;2023-07-29T22:30:49;20.00;99.90
285;DHT22;127;48.770;9.212;2023-07-29T22:33:55;19.90;99.90
285;DHT22;127;48.770;9.212;2023-07-29T22:36:42;20.00;99.90
285;DHT22;127;48.770;9.212;2023-07-29T22:39:36;20.00;99.90
285;DHT22;127;48.770;9.212;2023-07-29T22:42:24;19.80;99.90
285;DHT22;127;48.770;9.212;2023-07-29T22:48:21;19.30;99.90
285;DHT22;127;48.770;9.212;2023-07-29T22:51:24;19.00;1.00
285;DHT22;127;48.770;9.212;2023-07-29T22:54:22;18.80;1.00
285;DHT22;127;48.770;9.212;2023-07-29T22:56:54;18.60;1.00
285;DHT22;127;48.770;9.212;2023-07-29T22:59:36;18.30;1.00
285;DHT22;127;48.770;9.212;2023-07-29T23:05:06;18.20;1.00
285;DHT22;127;48.770;9.212;2023-07-29T23:07:37;18.20;1.00
285;DHT22;127;48.770;9.212;2023-07-29T23:10:07;18.10;1.00
285;DHT22;127;48.770;9.212;2023-07-29T23:12:44;18.20;1.00
285;DHT22;127;48.770;9.212;2023-07-29T23:15:25;18.10;1.00
285;DHT22;127;48.770;9.212;2023-07-29T23:44:30;18.00;1.00
285;DHT22;127;48.770;9.212;2023-07-29T23:47:11;18.00;1.00
285;DHT22;127;48.770;9.212;2023-07-29T23:53:45;17.40;1.00
